Andahuaylas, Peru
Current Conditions -  °F | °C
As of 12:00 PM on Thursday 27 Nov 2014 (Local Time) from SPHO Reporting Station
Few Clouds Few Clouds  
Wind Chill: 79°   Ceiling: Unl
Heat Index: 79°   Visibility: 6mi
Dew Point: 39°   Wind: 7mph
Humidity: 24%   Direction: NA
Pressure: 30.27"   Gusts: NA
Location:  13.65°S, 73.4°W
Report Text: SPHO 271700Z VRB06KT 9999 FEW050 26/04 Q1025 RMK PP000
Loading
Personal Weather Stations






























Interactive Weather Map New forecast layout! Learn more

10-Day Weather Forecast

Advertisements
Track Severe Weather on mobile